sensor_id;sensor_type;location;lat;lon;timestamp;P1;durP1;ratioP1;P2;durP2;ratioP2
70153;SDS011;57519;51.494;-2.626;2022-12-18T00:01:37;12.87;;;8.47;;
70153;SDS011;57519;51.494;-2.626;2022-12-18T00:04:04;11.60;;;8.23;;
70153;SDS011;57519;51.494;-2.626;2022-12-18T00:06:31;13.75;;;8.80;;
70153;SDS011;57519;51.494;-2.626;2022-12-18T00:08:58;17.30;;;10.73;;
70153;SDS011;57519;51.494;-2.626;2022-12-18T00:11:25;11.27;;;8.80;;
70153;SDS011;57519;51.494;-2.626;2022-12-18T00:13:53;15.20;;;9.23;;
70153;SDS011;57519;51.494;-2.626;2022-12-18T00:16:20;17.08;;;10.20;;
70153;SDS011;57519;51.494;-2.626;2022-12-18T00:18:47;13.95;;;9.52;;
70153;SDS011;57519;51.494;-2.626;2022-12-18T00:21:15;10.10;;;8.10;;
70153;SDS011;57519;51.494;-2.626;2022-12-18T00:23:41;18.48;;;8.82;;
70153;SDS011;57519;51.494;-2.626;2022-12-18T00:26:10;10.25;;;6.88;;
70153;SDS011;57519;51.494;-2.626;2022-12-18T00:28:37;7.63;;;6.85;;
70153;SDS011;57519;51.494;-2.626;2022-12-18T00:31:03;14.17;;;8.80;;
70153;SDS011;57519;51.494;-2.626;2022-12-18T00:33:30;9.07;;;7.40;;
70153;SDS011;57519;51.494;-2.626;2022-12-18T00:36:08;17.13;;;9.07;;
70153;SDS011;57519;51.494;-2.626;2022-12-18T00:38:36;13.63;;;7.22;;
70153;SDS011;57519;51.494;-2.626;2022-12-18T00:41:02;14.15;;;9.48;;
70153;SDS011;57519;51.494;-2.626;2022-12-18T00:43:28;8.30;;;7.40;;
70153;SDS011;57519;51.494;-2.626;2022-12-18T00:45:54;9.98;;;6.40;;
70153;SDS011;57519;51.494;-2.626;2022-12-18T00:48:19;10.13;;;7.80;;
70153;SDS011;57519;51.494;-2.626;2022-12-18T00:50:45;13.13;;;7.50;;
70153;SDS011;57519;51.494;-2.626;2022-12-18T00:53:10;8.38;;;5.90;;
70153;SDS011;57519;51.494;-2.626;2022-12-18T00:55:39;12.75;;;7.13;;
70153;SDS011;57519;51.494;-2.626;2022-12-18T00:58:05;12.13;;;8.10;;
70153;SDS011;57519;51.494;-2.626;2022-12-18T01:00:31;10.55;;;7.22;;
70153;SDS011;57519;51.494;-2.626;2022-12-18T01:02:56;14.10;;;7.57;;
70153;SDS011;57519;51.494;-2.626;2022-12-18T01:05:22;11.57;;;8.13;;
70153;SDS011;57519;51.494;-2.626;2022-12-18T01:07:47;12.73;;;7.20;;
70153;SDS011;57519;51.494;-2.626;2022-12-18T01:10:13;17.15;;;9.10;;
70153;SDS011;57519;51.494;-2.626;2022-12-18T01:12:39;9.00;;;6.00;;
70153;SDS011;57519;51.494;-2.626;2022-12-18T01:15:05;11.70;;;8.68;;
70153;SDS011;57519;51.494;-2.626;2022-12-18T01:17:31;12.97;;;8.43;;
70153;SDS011;57519;51.494;-2.626;2022-12-18T01:19:57;15.23;;;8.32;;
70153;SDS011;57519;51.494;-2.626;2022-12-18T01:22:22;18.87;;;9.50;;
70153;SDS011;57519;51.494;-2.626;2022-12-18T01:24:48;13.03;;;7.37;;
70153;SDS011;57519;51.494;-2.626;2022-12-18T01:27:13;11.97;;;7.97;;
70153;SDS011;57519;51.494;-2.626;2022-12-18T01:29:38;16.10;;;10.33;;
70153;SDS011;57519;51.494;-2.626;2022-12-18T01:32:04;15.60;;;9.10;;
70153;SDS011;57519;51.494;-2.626;2022-12-18T01:34:29;16.53;;;9.90;;
70153;SDS011;57519;51.494;-2.626;2022-12-18T01:36:55;9.37;;;5.97;;
70153;SDS011;57519;51.494;-2.626;2022-12-18T01:39:20;12.57;;;7.00;;
70153;SDS011;57519;51.494;-2.626;2022-12-18T01:41:46;11.40;;;8.43;;
70153;SDS011;57519;51.494;-2.626;2022-12-18T01:44:51;9.35;;;7.38;;
70153;SDS011;57519;51.494;-2.626;2022-12-18T01:47:25;9.40;;;7.55;;
70153;SDS011;57519;51.494;-2.626;2022-12-18T01:49:54;11.63;;;7.38;;
70153;SDS011;57519;51.494;-2.626;2022-12-18T01:52:21;15.47;;;7.93;;
70153;SDS011;57519;51.494;-2.626;2022-12-18T01:54:47;8.52;;;5.03;;
70153;SDS011;57519;51.494;-2.626;2022-12-18T01:57:15;10.48;;;7.95;;
70153;SDS011;57519;51.494;-2.626;2022-12-18T01:59:41;11.32;;;7.00;;
70153;SDS011;57519;51.494;-2.626;2022-12-18T02:02:09;11.40;;;8.23;;
70153;SDS011;57519;51.494;-2.626;2022-12-18T02:04:34;12.73;;;8.20;;
70153;SDS011;57519;51.494;-2.626;2022-12-18T02:12:24;9.70;;;7.20;;
70153;SDS011;57519;51.494;-2.626;2022-12-18T02:14:58;10.73;;;7.57;;
70153;SDS011;57519;51.494;-2.626;2022-12-18T02:17:31;10.63;;;7.07;;
70153;SDS011;57519;51.494;-2.626;2022-12-18T02:20:18;8.38;;;6.57;;
70153;SDS011;57519;51.494;-2.626;2022-12-18T02:22:53;11.15;;;6.43;;
70153;SDS011;57519;51.494;-2.626;2022-12-18T02:28:30;11.90;;;7.60;;
70153;SDS011;57519;51.494;-2.626;2022-12-18T02:31:00;14.20;;;7.18;;
70153;SDS011;57519;51.494;-2.626;2022-12-18T02:33:27;12.02;;;7.47;;
70153;SDS011;57519;51.494;-2.626;2022-12-18T02:35:55;14.75;;;7.15;;
70153;SDS011;57519;51.494;-2.626;2022-12-18T02:38:23;18.23;;;7.95;;
70153;SDS011;57519;51.494;-2.626;2022-12-18T02:40:49;9.87;;;6.43;;
70153;SDS011;57519;51.494;-2.626;2022-12-18T02:43:18;10.30;;;6.50;;
70153;SDS011;57519;51.494;-2.626;2022-12-18T02:45:54;6.90;;;6.20;;
70153;SDS011;57519;51.494;-2.626;2022-12-18T02:48:22;12.77;;;7.57;;
70153;SDS011;57519;51.494;-2.626;2022-12-18T02:51:03;13.10;;;8.05;;
70153;SDS011;57519;51.494;-2.626;2022-12-18T02:53:43;15.52;;;6.72;;
70153;SDS011;57519;51.494;-2.626;2022-12-18T02:56:21;9.60;;;6.57;;
70153;SDS011;57519;51.494;-2.626;2022-12-18T02:59:06;9.00;;;5.75;;
70153;SDS011;57519;51.494;-2.626;2022-12-18T03:06:53;11.55;;;6.03;;
70153;SDS011;57519;51.494;-2.626;2022-12-18T03:09:21;10.00;;;7.70;;
70153;SDS011;57519;51.494;-2.626;2022-12-18T03:11:54;12.23;;;7.65;;
70153;SDS011;57519;51.494;-2.626;2022-12-18T03:14:43;10.40;;;6.33;;
70153;SDS011;57519;51.494;-2.626;2022-12-18T03:17:13;10.77;;;6.53;;
70153;SDS011;57519;51.494;-2.626;2022-12-18T03:19:44;11.05;;;6.63;;
70153;SDS011;57519;51.494;-2.626;2022-12-18T03:22:11;10.35;;;6.97;;
70153;SDS011;57519;51.494;-2.626;2022-12-18T03:24:39;9.35;;;6.78;;
70153;SDS011;57519;51.494;-2.626;2022-12-18T03:27:06;8.90;;;6.83;;
70153;SDS011;57519;51.494;-2.626;2022-12-18T03:32:12;12.95;;;7.45;;
70153;SDS011;57519;51.494;-2.626;2022-12-18T03:35:00;7.72;;;5.85;;
70153;SDS011;57519;51.494;-2.626;2022-12-18T03:37:29;11.10;;;7.55;;
70153;SDS011;57519;51.494;-2.626;2022-12-18T03:39:56;13.67;;;7.00;;
70153;SDS011;57519;51.494;-2.626;2022-12-18T03:50:57;10.75;;;6.68;;
70153;SDS011;57519;51.494;-2.626;2022-12-18T03:53:35;12.02;;;7.07;;
70153;SDS011;57519;51.494;-2.626;2022-12-18T03:56:07;9.88;;;6.03;;
70153;SDS011;57519;51.494;-2.626;2022-12-18T03:58:35;11.88;;;5.72;;
70153;SDS011;57519;51.494;-2.626;2022-12-18T04:01:03;12.47;;;6.30;;
70153;SDS011;57519;51.494;-2.626;2022-12-18T04:03:32;10.20;;;6.40;;
70153;SDS011;57519;51.494;-2.626;2022-12-18T04:05:59;8.93;;;5.70;;
70153;SDS011;57519;51.494;-2.626;2022-12-18T04:08:26;13.57;;;7.03;;
70153;SDS011;57519;51.494;-2.626;2022-12-18T04:10:52;14.90;;;6.32;;
70153;SDS011;57519;51.494;-2.626;2022-12-18T04:13:53;16.50;;;7.00;;
70153;SDS011;57519;51.494;-2.626;2022-12-18T04:16:09;12.05;;;6.85;;
70153;SDS011;57519;51.494;-2.626;2022-12-18T04:18:35;10.80;;;6.60;;
70153;SDS011;57519;51.494;-2.626;2022-12-18T04:21:01;10.25;;;5.85;;
70153;SDS011;57519;51.494;-2.626;2022-12-18T04:23:27;12.70;;;7.37;;
70153;SDS011;57519;51.494;-2.626;2022-12-18T04:25:53;12.50;;;6.90;;
70153;SDS011;57519;51.494;-2.626;2022-12-18T04:28:19;16.65;;;7.82;;
70153;SDS011;57519;51.494;-2.626;2022-12-18T04:30:44;13.20;;;7.00;;
70153;SDS011;57519;51.494;-2.626;2022-12-18T04:33:13;13.13;;;7.90;;
70153;SDS011;57519;51.494;-2.626;2022-12-18T04:35:41;12.30;;;7.05;;
70153;SDS011;57519;51.494;-2.626;2022-12-18T04:38:07;13.57;;;9.23;;
70153;SDS011;57519;51.494;-2.626;2022-12-18T04:40:33;12.60;;;6.87;;
70153;SDS011;57519;51.494;-2.626;2022-12-18T04:42:59;12.60;;;6.97;;
70153;SDS011;57519;51.494;-2.626;2022-12-18T04:45:24;15.00;;;7.60;;
70153;SDS011;57519;51.494;-2.626;2022-12-18T04:47:50;11.55;;;7.03;;
70153;SDS011;57519;51.494;-2.626;2022-12-18T04:50:15;13.37;;;7.63;;
70153;SDS011;57519;51.494;-2.626;2022-12-18T04:52:40;11.23;;;8.03;;
70153;SDS011;57519;51.494;-2.626;2022-12-18T04:55:06;13.37;;;7.70;;
70153;SDS011;57519;51.494;-2.626;2022-12-18T04:57:32;10.23;;;7.47;;
70153;SDS011;57519;51.494;-2.626;2022-12-18T04:59:57;14.90;;;8.73;;
70153;SDS011;57519;51.494;-2.626;2022-12-18T05:02:23;11.73;;;7.27;;
70153;SDS011;57519;51.494;-2.626;2022-12-18T05:04:48;11.77;;;7.63;;
70153;SDS011;57519;51.494;-2.626;2022-12-18T05:07:13;15.63;;;9.55;;
70153;SDS011;57519;51.494;-2.626;2022-12-18T05:09:39;13.87;;;9.33;;
70153;SDS011;57519;51.494;-2.626;2022-12-18T05:12:04;13.73;;;8.27;;
70153;SDS011;57519;51.494;-2.626;2022-12-18T05:14:30;12.87;;;8.13;;
70153;SDS011;57519;51.494;-2.626;2022-12-18T05:16:55;21.05;;;9.30;;
70153;SDS011;57519;51.494;-2.626;2022-12-18T05:19:20;14.27;;;8.67;;
70153;SDS011;57519;51.494;-2.626;2022-12-18T05:21:46;10.17;;;7.43;;
70153;SDS011;57519;51.494;-2.626;2022-12-18T05:24:11;13.57;;;8.30;;
70153;SDS011;57519;51.494;-2.626;2022-12-18T05:26:37;18.77;;;8.13;;
70153;SDS011;57519;51.494;-2.626;2022-12-18T05:29:02;15.30;;;9.50;;
70153;SDS011;57519;51.494;-2.626;2022-12-18T05:31:28;20.50;;;8.17;;
70153;SDS011;57519;51.494;-2.626;2022-12-18T05:33:53;13.80;;;7.80;;
70153;SDS011;57519;51.494;-2.626;2022-12-18T05:36:19;15.65;;;7.90;;
70153;SDS011;57519;51.494;-2.626;2022-12-18T05:38:44;15.20;;;7.73;;
70153;SDS011;57519;51.494;-2.626;2022-12-18T05:41:10;16.07;;;8.63;;
70153;SDS011;57519;51.494;-2.626;2022-12-18T05:43:36;10.93;;;6.80;;
70153;SDS011;57519;51.494;-2.626;2022-12-18T05:46:05;11.73;;;7.40;;
70153;SDS011;57519;51.494;-2.626;2022-12-18T05:48:32;18.65;;;9.23;;
70153;SDS011;57519;51.494;-2.626;2022-12-18T05:51:03;15.00;;;8.25;;
70153;SDS011;57519;51.494;-2.626;2022-12-18T05:53:30;16.90;;;8.20;;
70153;SDS011;57519;51.494;-2.626;2022-12-18T05:55:59;13.10;;;7.20;;
70153;SDS011;57519;51.494;-2.626;2022-12-18T05:58:25;23.17;;;8.93;;
70153;SDS011;57519;51.494;-2.626;2022-12-18T06:00:50;16.83;;;8.37;;
70153;SDS011;57519;51.494;-2.626;2022-12-18T06:03:15;13.67;;;7.50;;
70153;SDS011;57519;51.494;-2.626;2022-12-18T06:05:42;12.07;;;7.87;;
70153;SDS011;57519;51.494;-2.626;2022-12-18T06:08:09;19.10;;;7.40;;
70153;SDS011;57519;51.494;-2.626;2022-12-18T06:10:35;18.38;;;8.10;;
70153;SDS011;57519;51.494;-2.626;2022-12-18T06:13:01;20.15;;;9.25;;
70153;SDS011;57519;51.494;-2.626;2022-12-18T06:15:27;15.20;;;9.30;;
70153;SDS011;57519;51.494;-2.626;2022-12-18T06:17:53;13.73;;;8.47;;
70153;SDS011;57519;51.494;-2.626;2022-12-18T06:20:18;21.60;;;8.88;;
70153;SDS011;57519;51.494;-2.626;2022-12-18T06:22:44;13.67;;;6.50;;
70153;SDS011;57519;51.494;-2.626;2022-12-18T06:25:09;17.07;;;9.33;;
70153;SDS011;57519;51.494;-2.626;2022-12-18T06:27:34;24.38;;;8.55;;
70153;SDS011;57519;51.494;-2.626;2022-12-18T06:30:00;17.73;;;8.60;;
70153;SDS011;57519;51.494;-2.626;2022-12-18T06:32:26;17.90;;;9.20;;
70153;SDS011;57519;51.494;-2.626;2022-12-18T06:34:51;11.90;;;8.05;;
70153;SDS011;57519;51.494;-2.626;2022-12-18T06:37:18;20.75;;;9.95;;
70153;SDS011;57519;51.494;-2.626;2022-12-18T06:39:44;19.37;;;9.00;;
70153;SDS011;57519;51.494;-2.626;2022-12-18T06:42:09;20.73;;;10.40;;
70153;SDS011;57519;51.494;-2.626;2022-12-18T06:44:35;21.73;;;10.60;;
70153;SDS011;57519;51.494;-2.626;2022-12-18T06:47:00;19.77;;;9.73;;
70153;SDS011;57519;51.494;-2.626;2022-12-18T06:49:26;16.23;;;8.17;;
70153;SDS011;57519;51.494;-2.626;2022-12-18T06:51:51;18.73;;;9.50;;
70153;SDS011;57519;51.494;-2.626;2022-12-18T06:54:17;23.80;;;10.20;;
70153;SDS011;57519;51.494;-2.626;2022-12-18T06:56:42;18.70;;;9.93;;
70153;SDS011;57519;51.494;-2.626;2022-12-18T06:59:10;18.88;;;10.55;;
70153;SDS011;57519;51.494;-2.626;2022-12-18T07:01:35;22.73;;;10.23;;
70153;SDS011;57519;51.494;-2.626;2022-12-18T07:04:01;19.73;;;9.97;;
70153;SDS011;57519;51.494;-2.626;2022-12-18T07:06:26;17.57;;;8.73;;
70153;SDS011;57519;51.494;-2.626;2022-12-18T07:08:52;21.40;;;10.07;;
70153;SDS011;57519;51.494;-2.626;2022-12-18T07:11:19;23.37;;;8.97;;
70153;SDS011;57519;51.494;-2.626;2022-12-18T07:13:45;15.55;;;9.32;;
70153;SDS011;57519;51.494;-2.626;2022-12-18T07:16:12;19.02;;;8.88;;
70153;SDS011;57519;51.494;-2.626;2022-12-18T07:18:41;18.00;;;8.50;;
70153;SDS011;57519;51.494;-2.626;2022-12-18T07:21:08;16.23;;;8.27;;
70153;SDS011;57519;51.494;-2.626;2022-12-18T07:23:35;22.48;;;10.73;;
70153;SDS011;57519;51.494;-2.626;2022-12-18T07:26:07;17.73;;;9.60;;
70153;SDS011;57519;51.494;-2.626;2022-12-18T07:28:35;20.98;;;9.00;;
70153;SDS011;57519;51.494;-2.626;2022-12-18T07:31:04;15.48;;;9.05;;
70153;SDS011;57519;51.494;-2.626;2022-12-18T07:33:34;13.00;;;6.57;;
70153;SDS011;57519;51.494;-2.626;2022-12-18T07:36:01;24.67;;;10.40;;
70153;SDS011;57519;51.494;-2.626;2022-12-18T07:38:28;15.75;;;9.73;;
70153;SDS011;57519;51.494;-2.626;2022-12-18T07:40:54;22.57;;;10.30;;
70153;SDS011;57519;51.494;-2.626;2022-12-18T07:43:19;26.07;;;12.07;;
70153;SDS011;57519;51.494;-2.626;2022-12-18T07:45:44;24.67;;;11.20;;
70153;SDS011;57519;51.494;-2.626;2022-12-18T07:48:10;30.20;;;9.83;;
70153;SDS011;57519;51.494;-2.626;2022-12-18T07:50:36;26.60;;;11.43;;
70153;SDS011;57519;51.494;-2.626;2022-12-18T07:53:02;16.57;;;9.00;;
70153;SDS011;57519;51.494;-2.626;2022-12-18T07:55:29;19.00;;;9.32;;
70153;SDS011;57519;51.494;-2.626;2022-12-18T07:57:55;19.50;;;10.60;;
70153;SDS011;57519;51.494;-2.626;2022-12-18T08:00:21;16.97;;;10.17;;
70153;SDS011;57519;51.494;-2.626;2022-12-18T08:02:46;20.00;;;10.27;;
70153;SDS011;57519;51.494;-2.626;2022-12-18T08:05:12;21.23;;;10.83;;
70153;SDS011;57519;51.494;-2.626;2022-12-18T08:07:38;17.13;;;10.68;;
70153;SDS011;57519;51.494;-2.626;2022-12-18T08:10:04;20.93;;;9.57;;
70153;SDS011;57519;51.494;-2.626;2022-12-18T08:12:30;18.33;;;9.27;;
70153;SDS011;57519;51.494;-2.626;2022-12-18T08:14:55;18.70;;;11.27;;
70153;SDS011;57519;51.494;-2.626;2022-12-18T08:17:21;18.80;;;8.83;;
70153;SDS011;57519;51.494;-2.626;2022-12-18T08:19:46;23.20;;;9.33;;
70153;SDS011;57519;51.494;-2.626;2022-12-18T08:22:12;21.53;;;9.63;;
70153;SDS011;57519;51.494;-2.626;2022-12-18T08:24:37;16.57;;;7.67;;
70153;SDS011;57519;51.494;-2.626;2022-12-18T08:27:02;19.57;;;9.60;;
70153;SDS011;57519;51.494;-2.626;2022-12-18T08:29:28;16.73;;;9.50;;
70153;SDS011;57519;51.494;-2.626;2022-12-18T08:31:53;20.60;;;9.23;;
70153;SDS011;57519;51.494;-2.626;2022-12-18T08:34:18;20.13;;;9.37;;
70153;SDS011;57519;51.494;-2.626;2022-12-18T08:36:44;17.03;;;9.03;;
70153;SDS011;57519;51.494;-2.626;2022-12-18T08:39:09;20.63;;;10.10;;
70153;SDS011;57519;51.494;-2.626;2022-12-18T08:41:35;21.27;;;9.27;;
70153;SDS011;57519;51.494;-2.626;2022-12-18T08:44:00;13.33;;;8.70;;
70153;SDS011;57519;51.494;-2.626;2022-12-18T08:46:44;13.63;;;8.70;;
70153;SDS011;57519;51.494;-2.626;2022-12-18T08:49:10;16.20;;;9.07;;
70153;SDS011;57519;51.494;-2.626;2022-12-18T08:51:36;16.45;;;8.82;;
70153;SDS011;57519;51.494;-2.626;2022-12-18T08:54:03;18.80;;;9.80;;
70153;SDS011;57519;51.494;-2.626;2022-12-18T08:56:29;19.40;;;9.50;;
70153;SDS011;57519;51.494;-2.626;2022-12-18T08:58:55;19.80;;;9.77;;
70153;SDS011;57519;51.494;-2.626;2022-12-18T09:01:21;10.30;;;6.60;;
70153;SDS011;57519;51.494;-2.626;2022-12-18T09:03:47;16.13;;;9.00;;
70153;SDS011;57519;51.494;-2.626;2022-12-18T09:06:14;11.93;;;7.88;;
70153;SDS011;57519;51.494;-2.626;2022-12-18T09:08:44;14.98;;;8.93;;
70153;SDS011;57519;51.494;-2.626;2022-12-18T09:11:14;13.98;;;8.18;;
70153;SDS011;57519;51.494;-2.626;2022-12-18T09:13:44;19.47;;;8.57;;
70153;SDS011;57519;51.494;-2.626;2022-12-18T09:16:10;16.50;;;8.65;;
70153;SDS011;57519;51.494;-2.626;2022-12-18T09:18:35;17.57;;;9.30;;
70153;SDS011;57519;51.494;-2.626;2022-12-18T09:21:07;17.07;;;7.90;;
70153;SDS011;57519;51.494;-2.626;2022-12-18T09:23:36;12.40;;;8.57;;
70153;SDS011;57519;51.494;-2.626;2022-12-18T09:26:02;21.53;;;10.10;;
70153;SDS011;57519;51.494;-2.626;2022-12-18T09:28:28;19.55;;;9.15;;
70153;SDS011;57519;51.494;-2.626;2022-12-18T09:30:53;11.43;;;6.60;;
70153;SDS011;57519;51.494;-2.626;2022-12-18T09:33:19;12.60;;;8.00;;
70153;SDS011;57519;51.494;-2.626;2022-12-18T09:35:44;19.55;;;8.93;;
70153;SDS011;57519;51.494;-2.626;2022-12-18T09:38:14;18.33;;;8.93;;
70153;SDS011;57519;51.494;-2.626;2022-12-18T09:40:43;17.10;;;10.00;;
70153;SDS011;57519;51.494;-2.626;2022-12-18T09:43:17;14.43;;;8.45;;
70153;SDS011;57519;51.494;-2.626;2022-12-18T09:45:46;14.07;;;8.88;;
70153;SDS011;57519;51.494;-2.626;2022-12-18T09:48:21;16.17;;;10.77;;
70153;SDS011;57519;51.494;-2.626;2022-12-18T09:50:50;17.98;;;8.70;;
70153;SDS011;57519;51.494;-2.626;2022-12-18T09:53:21;13.70;;;8.85;;
70153;SDS011;57519;51.494;-2.626;2022-12-18T09:55:51;9.73;;;6.90;;
70153;SDS011;57519;51.494;-2.626;2022-12-18T10:01:09;17.90;;;10.10;;
70153;SDS011;57519;51.494;-2.626;2022-12-18T10:03:36;18.25;;;10.65;;
70153;SDS011;57519;51.494;-2.626;2022-12-18T10:08:37;16.38;;;9.75;;
70153;SDS011;57519;51.494;-2.626;2022-12-18T10:13:52;20.35;;;9.38;;
70153;SDS011;57519;51.494;-2.626;2022-12-18T10:16:44;20.42;;;8.80;;
70153;SDS011;57519;51.494;-2.626;2022-12-18T10:27:18;16.70;;;9.30;;
70153;SDS011;57519;51.494;-2.626;2022-12-18T10:29:50;10.93;;;8.15;;
70153;SDS011;57519;51.494;-2.626;2022-12-18T10:32:18;14.93;;;9.68;;
70153;SDS011;57519;51.494;-2.626;2022-12-18T10:34:46;14.88;;;9.07;;
70153;SDS011;57519;51.494;-2.626;2022-12-18T10:37:19;18.07;;;9.53;;
70153;SDS011;57519;51.494;-2.626;2022-12-18T10:39:46;25.35;;;12.07;;
70153;SDS011;57519;51.494;-2.626;2022-12-18T10:42:32;22.95;;;10.82;;
70153;SDS011;57519;51.494;-2.626;2022-12-18T10:45:08;13.18;;;8.45;;
70153;SDS011;57519;51.494;-2.626;2022-12-18T10:47:45;18.33;;;9.77;;
70153;SDS011;57519;51.494;-2.626;2022-12-18T10:50:32;18.80;;;9.73;;
70153;SDS011;57519;51.494;-2.626;2022-12-18T10:52:59;22.20;;;11.45;;
70153;SDS011;57519;51.494;-2.626;2022-12-18T10:55:31;18.83;;;9.18;;
70153;SDS011;57519;51.494;-2.626;2022-12-18T11:01:02;10.03;;;7.63;;
70153;SDS011;57519;51.494;-2.626;2022-12-18T11:06:20;25.33;;;12.18;;
70153;SDS011;57519;51.494;-2.626;2022-12-18T11:09:00;22.73;;;9.55;;
70153;SDS011;57519;51.494;-2.626;2022-12-18T11:11:30;19.15;;;9.50;;
70153;SDS011;57519;51.494;-2.626;2022-12-18T11:14:04;22.77;;;10.53;;
70153;SDS011;57519;51.494;-2.626;2022-12-18T11:16:36;18.58;;;9.85;;
70153;SDS011;57519;51.494;-2.626;2022-12-18T11:19:55;18.00;;;10.48;;
70153;SDS011;57519;51.494;-2.626;2022-12-18T11:21:57;25.65;;;11.35;;
70153;SDS011;57519;51.494;-2.626;2022-12-18T11:24:30;26.07;;;12.30;;
70153;SDS011;57519;51.494;-2.626;2022-12-18T11:27:03;24.97;;;12.07;;
70153;SDS011;57519;51.494;-2.626;2022-12-18T11:29:32;14.77;;;8.98;;
70153;SDS011;57519;51.494;-2.626;2022-12-18T11:34:59;22.52;;;11.27;;
70153;SDS011;57519;51.494;-2.626;2022-12-18T11:37:29;27.52;;;13.07;;
70153;SDS011;57519;51.494;-2.626;2022-12-18T11:39:57;23.33;;;11.40;;
70153;SDS011;57519;51.494;-2.626;2022-12-18T11:42:35;28.17;;;12.70;;
70153;SDS011;57519;51.494;-2.626;2022-12-18T11:45:29;16.90;;;9.90;;
70153;SDS011;57519;51.494;-2.626;2022-12-18T11:48:03;4.95;;;3.72;;
70153;SDS011;57519;51.494;-2.626;2022-12-18T11:53:03;4.30;;;3.27;;
70153;SDS011;57519;51.494;-2.626;2022-12-18T11:55:47;3.97;;;3.58;;
70153;SDS011;57519;51.494;-2.626;2022-12-18T12:01:07;3.50;;;3.20;;
70153;SDS011;57519;51.494;-2.626;2022-12-18T12:03:51;9.65;;;8.95;;
70153;SDS011;57519;51.494;-2.626;2022-12-18T12:10:29;3.60;;;3.30;;
70153;SDS011;57519;51.494;-2.626;2022-12-18T12:13:09;3.87;;;3.47;;
70153;SDS011;57519;51.494;-2.626;2022-12-18T12:26:38;3.60;;;3.30;;
70153;SDS011;57519;51.494;-2.626;2022-12-18T12:32:07;3.63;;;3.33;;
70153;SDS011;57519;51.494;-2.626;2022-12-18T12:34:58;4.30;;;4.00;;
70153;SDS011;57519;51.494;-2.626;2022-12-18T12:38:05;3.30;;;3.00;;
70153;SDS011;57519;51.494;-2.626;2022-12-18T12:40:34;3.72;;;3.20;;
70153;SDS011;57519;51.494;-2.626;2022-12-18T12:43:05;3.30;;;3.00;;
70153;SDS011;57519;51.494;-2.626;2022-12-18T12:51:20;3.60;;;3.30;;
70153;SDS011;57519;51.494;-2.626;2022-12-18T12:53:55;4.07;;;3.60;;
70153;SDS011;57519;51.494;-2.626;2022-12-18T12:56:22;3.53;;;3.10;;
70153;SDS011;57519;51.494;-2.626;2022-12-18T12:59:04;3.53;;;3.23;;
70153;SDS011;57519;51.494;-2.626;2022-12-18T13:01:55;4.15;;;3.60;;
70153;SDS011;57519;51.494;-2.626;2022-12-18T13:20:44;4.90;;;3.63;;
70153;SDS011;57519;51.494;-2.626;2022-12-18T13:25:55;3.80;;;3.40;;
70153;SDS011;57519;51.494;-2.626;2022-12-18T13:31:57;3.93;;;3.53;;
70153;SDS011;57519;51.494;-2.626;2022-12-18T13:34:25;3.58;;;3.17;;
70153;SDS011;57519;51.494;-2.626;2022-12-18T13:36:55;3.50;;;3.20;;
70153;SDS011;57519;51.494;-2.626;2022-12-18T13:39:39;10.82;;;7.85;;
70153;SDS011;57519;51.494;-2.626;2022-12-18T13:44:59;3.73;;;3.23;;
70153;SDS011;57519;51.494;-2.626;2022-12-18T13:47:32;3.40;;;2.95;;
70153;SDS011;57519;51.494;-2.626;2022-12-18T13:49:58;4.22;;;3.00;;
70153;SDS011;57519;51.494;-2.626;2022-12-18T13:52:26;3.67;;;3.17;;
70153;SDS011;57519;51.494;-2.626;2022-12-18T13:54:56;4.50;;;3.20;;
70153;SDS011;57519;51.494;-2.626;2022-12-18T13:57:25;3.30;;;2.90;;
70153;SDS011;57519;51.494;-2.626;2022-12-18T13:59:53;3.13;;;2.53;;
70153;SDS011;57519;51.494;-2.626;2022-12-18T14:02:21;3.80;;;3.17;;
70153;SDS011;57519;51.494;-2.626;2022-12-18T14:04:48;3.50;;;3.20;;
70153;SDS011;57519;51.494;-2.626;2022-12-18T14:09:42;4.15;;;3.30;;
70153;SDS011;57519;51.494;-2.626;2022-12-18T14:12:17;3.38;;;3.08;;
70153;SDS011;57519;51.494;-2.626;2022-12-18T14:15:17;3.38;;;3.08;;
70153;SDS011;57519;51.494;-2.626;2022-12-18T14:18:01;4.33;;;3.20;;
70153;SDS011;57519;51.494;-2.626;2022-12-18T14:20:34;4.50;;;4.15;;
70153;SDS011;57519;51.494;-2.626;2022-12-18T14:22:59;3.80;;;3.40;;
70153;SDS011;57519;51.494;-2.626;2022-12-18T14:25:26;3.10;;;2.80;;
70153;SDS011;57519;51.494;-2.626;2022-12-18T14:28:04;3.35;;;3.05;;
70153;SDS011;57519;51.494;-2.626;2022-12-18T14:30:41;3.53;;;3.13;;
70153;SDS011;57519;51.494;-2.626;2022-12-18T14:35:34;3.40;;;3.10;;
70153;SDS011;57519;51.494;-2.626;2022-12-18T14:40:42;3.63;;;3.10;;
70153;SDS011;57519;51.494;-2.626;2022-12-18T14:43:11;3.20;;;2.90;;
70153;SDS011;57519;51.494;-2.626;2022-12-18T14:45:43;2.83;;;2.42;;
70153;SDS011;57519;51.494;-2.626;2022-12-18T14:50:36;3.63;;;3.20;;
70153;SDS011;57519;51.494;-2.626;2022-12-18T14:53:01;3.40;;;2.67;;
70153;SDS011;57519;51.494;-2.626;2022-12-18T14:55:27;3.10;;;2.80;;
70153;SDS011;57519;51.494;-2.626;2022-12-18T14:57:53;3.00;;;2.63;;
70153;SDS011;57519;51.494;-2.626;2022-12-18T15:00:21;3.28;;;2.97;;
70153;SDS011;57519;51.494;-2.626;2022-12-18T15:02:55;3.03;;;2.70;;
70153;SDS011;57519;51.494;-2.626;2022-12-18T15:05:25;3.10;;;2.80;;
70153;SDS011;57519;51.494;-2.626;2022-12-18T15:07:54;3.10;;;2.80;;
70153;SDS011;57519;51.494;-2.626;2022-12-18T15:10:22;3.15;;;2.85;;
70153;SDS011;57519;51.494;-2.626;2022-12-18T15:18:05;3.08;;;2.78;;
70153;SDS011;57519;51.494;-2.626;2022-12-18T15:20:45;3.23;;;2.87;;
70153;SDS011;57519;51.494;-2.626;2022-12-18T15:23:55;2.95;;;2.65;;
70153;SDS011;57519;51.494;-2.626;2022-12-18T15:26:11;3.00;;;2.65;;
70153;SDS011;57519;51.494;-2.626;2022-12-18T15:28:49;3.70;;;3.28;;
70153;SDS011;57519;51.494;-2.626;2022-12-18T15:36:17;2.92;;;2.60;;
70153;SDS011;57519;51.494;-2.626;2022-12-18T15:38:46;2.85;;;2.53;;
70153;SDS011;57519;51.494;-2.626;2022-12-18T15:41:13;3.03;;;2.72;;
70153;SDS011;57519;51.494;-2.626;2022-12-18T15:43:40;2.53;;;2.20;;
70153;SDS011;57519;51.494;-2.626;2022-12-18T15:46:16;3.23;;;2.80;;
70153;SDS011;57519;51.494;-2.626;2022-12-18T15:48:53;3.00;;;2.47;;
70153;SDS011;57519;51.494;-2.626;2022-12-18T15:53:48;2.87;;;2.53;;
70153;SDS011;57519;51.494;-2.626;2022-12-18T15:56:18;2.97;;;2.63;;
70153;SDS011;57519;51.494;-2.626;2022-12-18T15:59:04;3.17;;;2.88;;
70153;SDS011;57519;51.494;-2.626;2022-12-18T16:01:44;2.70;;;2.38;;
70153;SDS011;57519;51.494;-2.626;2022-12-18T16:04:12;2.65;;;2.30;;
70153;SDS011;57519;51.494;-2.626;2022-12-18T16:06:38;3.40;;;2.77;;
70153;SDS011;57519;51.494;-2.626;2022-12-18T16:09:04;9.10;;;8.60;;
70153;SDS011;57519;51.494;-2.626;2022-12-18T16:11:31;2.83;;;2.40;;
70153;SDS011;57519;51.494;-2.626;2022-12-18T16:16:35;3.47;;;3.00;;
70153;SDS011;57519;51.494;-2.626;2022-12-18T16:19:01;3.00;;;2.53;;
70153;SDS011;57519;51.494;-2.626;2022-12-18T16:21:26;2.90;;;2.30;;
70153;SDS011;57519;51.494;-2.626;2022-12-18T16:23:52;4.13;;;3.00;;
70153;SDS011;57519;51.494;-2.626;2022-12-18T16:26:17;5.20;;;4.28;;
70153;SDS011;57519;51.494;-2.626;2022-12-18T16:28:43;4.10;;;3.07;;
70153;SDS011;57519;51.494;-2.626;2022-12-18T16:31:08;3.20;;;2.67;;
70153;SDS011;57519;51.494;-2.626;2022-12-18T16:33:34;3.53;;;2.73;;
70153;SDS011;57519;51.494;-2.626;2022-12-18T16:35:59;3.22;;;2.80;;
70153;SDS011;57519;51.494;-2.626;2022-12-18T16:38:25;4.17;;;3.23;;
70153;SDS011;57519;51.494;-2.626;2022-12-18T16:40:50;3.83;;;2.90;;
70153;SDS011;57519;51.494;-2.626;2022-12-18T16:43:34;3.80;;;2.85;;
70153;SDS011;57519;51.494;-2.626;2022-12-18T16:45:59;3.40;;;3.10;;